Terminal Aerodrome Forecast
Issued by NWS Pittsburgh, PA

Current Version | Previous Version | Graphics & Text | Print | Product List | Glossary On
Versions: 1 2 3 4 5 6 7 8 9 10 11 12 13 14 15 16 17 18 19 20 21 22 23 24 25 26 27 28 29 30 31 32 33
432
FTUS41 KPBZ 011736
TAFPIT
TAF
KPIT 011736Z 0118/0224 27014G20KT P6SM BKN025
     FM012200 25012KT P6SM OVC035
     FM020700 26007KT P6SM OVC015
     FM021500 26011G18KT P6SM OVC025=

USA.gov is the U.S. government's official web portal to all federal, state and local government web resources and services.